Aviation Digital Data Service (ADDS)

Output produced by METARs form (0435 UTC 19 April 2015)
found at http://aviationweather.gov/adds/metars/
 
KART 190306Z 1903/1924 03005KT P6SM SKC 
     FM191500 05008KT P6SM SCT250